• Join FlightAware (Why Join?)
  • Login
  • US Flag 
01:37AM EDT


 

Airport Tracker/Info


-or-


 

Live Flight TrackerFlight Track Log ✈ N508QS ✈ 21-May-2013 ✈ KBED - EIDW / DUB

Flight Track Log - Related Links

Times and Time Zones

All times are in EDT time to prevent confusion due to time zone crossing. See the N508QS flight status page for this flight to view local times or setup timezone preferences in your user account.

Time Position Orientation Groundspeed Altitude Reporting Facility
EDT Latitude Longitude Course Direction KTS MPH feet Rate Location/Type
06:32PM 42.4667 -71.2500 56° Northeast 191 220 1,300  Level KA90
06:32PM 42.4833 -71.2167 56° Northeast 184 212 2,400 1,020 Climbing KA90
06:33PM 42.5167 -71.1500 56° Northeast 242 278 3,100 300 Climbing KA90
06:34PM 42.5500 -71.0667 61° Northeast 260 299 3,100 480 Level KA90
06:35PM 42.5833 -70.9667 66° East 267 307 4,100 480 Climbing KA90
06:36PM 42.6000 -70.8667 77° East 273 314 4,100 1,200 Level KA90
06:38PM 42.6394 -70.7044 72° East 287 330 7,400 2,340 Climbing Boston Center
06:39PM 42.6797 -70.6156 58° Northeast 294 338 10,600 2,160 Climbing Boston Center
06:40PM 42.7358 -70.4894 59° Northeast 334 384 12,200 2,220 Climbing Boston Center
06:41PM 42.8061 -70.3317 59° Northeast 380 437 15,600 2,880 Climbing Boston Center
06:42PM 42.8489 -70.1803 69° East 398 458 18,100 2,340 Climbing Boston Center
06:43PM 42.8853 -70.0172 73° East 423 487 20,300 2,160 Climbing Boston Center
06:44PM 42.9275 -69.8483 71° East 452 520 22,500 2,040 Climbing Boston Center
06:45PM 42.9692 -69.6706 72° East 473 544 24,400 1,920 Climbing Boston Center
06:46PM 43.0106 -69.4925 72° East 486 559 26,400 2,040 Climbing Boston Center
06:47PM 43.0533 -69.3058 73° East 496 571 28,500 2,220 Climbing Boston Center
06:48PM 43.0925 -69.1389 72° East 507 583 30,900 2,100 Climbing Boston Center
06:49PM 43.1278 -68.9975 71° East 501 577 32,700 2,040 Climbing Boston Center
06:50PM 43.2139 -68.8131 57° Northeast 481 554 35,000 1,980 Climbing Boston Center
06:51PM 43.2881 -68.6547 57° Northeast 481 554 36,700 1,560 Climbing Boston Center
06:52PM 43.3406 -68.4856 67° East 476 548 38,200 1,260 Climbing Boston Center
06:53PM 43.3694 -68.3008 78° East 484 557 39,300 1,080 Climbing Boston Center
06:54PM 43.4014 -68.0958 78° East 484 557 40,400 840 Climbing Boston Center
06:55PM 43.4297 -67.9078 78° East 490 564 41,000 300 Climbing Boston Center
06:56PM 43.4594 -67.7139 78° East 501 577 41,000  Level Boston Center
06:57PM 43.4886 -67.5197 78° East 506 582 41,000  Level Boston Center
06:58PM 43.5178 -67.3281 78° East 506 582 41,000  Level Boston Center
06:59PM 43.5461 -67.1281 79° East 511 588 41,000  Level Boston Center
07:00PM 43.5808 -66.9356 76° East 511 588 41,000  Level Boston Center
07:01PM 43.6167 -66.8000 70° East 520 598 41,000  Level Moncton Center
07:02PM 43.6667 -66.6167 69° East 520 598 41,000  Level Moncton Center
07:03PM 43.7167 -66.4167 71° East 520 598 41,000  Level Moncton Center
07:04PM 43.7667 -66.2500 67° East 520 598 41,000  Level Moncton Center
07:05PM 43.8167 -66.0500 71° East 520 598 41,000  Level Moncton Center
07:06PM 43.8833 -65.8500 65° Northeast 520 598 41,000  Level Moncton Center
07:07PM 43.9333 -65.6667 69° East 520 598 41,000  Level Moncton Center
07:08PM 43.9833 -65.4833 69° East 520 598 41,000  Level Moncton Center
07:09PM 44.0333 -65.3000 69° East 520 598 41,000  Level Moncton Center
07:10PM 44.0833 -65.1000 71° East 530 610 41,000  Level Moncton Center
07:11PM 44.1333 -64.9167 69° East 530 610 41,000  Level Moncton Center
07:12PM 44.1833 -64.7000 72° East 530 610 41,000  Level Moncton Center
07:13PM 44.2333 -64.5167 69° East 530 610 41,000  Level Moncton Center
07:14PM 44.2833 -64.3333 69° East 530 610 41,000  Level Moncton Center
07:16PM 44.3833 -63.9333 71° East 540 621 41,000  Level Moncton Center
07:17PM 44.4333 -63.7167 72° East 540 621 41,000  Level Moncton Center
07:18PM 44.4833 -63.5333 69° East 540 621 41,000  Level Moncton Center
07:19PM 44.5500 -63.3167 67° East 540 621 41,000  Level Moncton Center
07:20PM 44.6000 -63.1333 69° East 540 621 41,000  Level Moncton Center
07:21PM 44.6500 -62.9333 71° East 540 621 41,000  Level Moncton Center
07:22PM 44.7000 -62.7333 71° East 540 621 41,000  Level Moncton Center
07:23PM 44.7333 -62.5333 77° East 540 621 41,000  Level Moncton Center
07:24PM 44.7833 -62.3167 72° East 540 621 41,000  Level Moncton Center
07:25PM 44.8000 -62.2500 71° East 540 621 41,000  Level Gander Center
07:26PM 44.8500 -62.0500 71° East 550 633 41,000  Level Gander Center
07:26PM 44.8833 -61.9167 71° East 540 621 41,000  Level Moncton Center
07:27PM 44.9167 -61.8500 55° Northeast 540 621 41,000  Level Gander Center
07:28PM 44.9500 -61.6667 76° East 540 621 41,000  Level Gander Center
07:28PM 44.9833 -61.5167 73° East 550 633 41,000  Level Moncton Center
07:29PM 45.0333 -61.3167 70° East 550 633 41,000  Level Moncton Center
07:30PM 45.0667 -61.1000 78° East 550 633 41,000  Level Moncton Center
07:31PM 45.1000 -61.0167 60° Northeast 550 633 41,000  Level Gander Center
07:32PM 45.1500 -60.8333 69° East 550 633 41,000  Level Gander Center
07:32PM 45.1667 -60.7000 80° East 550 633 41,000  Level Moncton Center
07:34PM 45.2500 -60.2667 75° East 540 621 41,000  Level Gander Center
07:35PM 45.2667 -60.2167 65° Northeast 540 621 41,000  Level Gander Center
07:36PM 45.3167 -60.0000 72° East 540 621 41,000  Level Gander Center
07:37PM 45.3667 -59.7833 72° East 540 621 41,000  Level Gander Center
07:37PM 45.3833 -59.6833 77° East 530 610 41,000  Level Moncton Center
07:38PM 45.4000 -59.6000 74° East 530 610 41,000  Level Gander Center
07:39PM 45.4500 -59.4000 70° East 530 610 41,000  Level Gander Center
07:39PM 45.4667 -59.2667 80° East 530 610 41,000  Level Moncton Center
07:40PM 45.5167 -59.0667 70° East 530 610 41,000  Level Moncton Center
07:41PM 45.5333 -59.0000 70° East 540 621 41,000  Level Gander Center
07:42PM 45.5833 -58.7833 72° East 540 621 41,000  Level Gander Center
07:42PM 45.6000 -58.6500 80° East 530 610 41,000  Level Moncton Center
07:43PM 45.6333 -58.4667 75° East 530 610 41,000  Level Moncton Center
07:44PM 45.6500 -58.4000 70° East 530 610 41,000  Level Gander Center
07:45PM 45.7000 -58.2000 70° East 520 598 41,000  Level Gander Center
07:45PM 45.7167 -58.0667 80° East 520 598 41,000  Level Moncton Center
07:46PM 45.7667 -57.8500 72° East 530 610 41,000  Level Moncton Center
07:47PM 45.7833 -57.6500 83° East 530 610 41,000  Level Moncton Center
07:48PM 45.8333 -57.4500 70° East 530 610 41,000  Level Moncton Center
07:49PM 45.8833 -57.2333 72° East 530 610 41,000  Level Moncton Center
07:50PM 45.9167 -57.0333 76° East 540 621 41,000  Level Moncton Center
07:51PM 45.9333 -56.9667 70° East 540 621 41,000  Level Gander Center
07:51PM 45.9500 -56.8167 81° East 540 621 41,000  Level Moncton Center
07:52PM 45.9833 -56.6167 76° East 540 621 41,000  Level Moncton Center
07:53PM 46.0000 -56.5167 76° East 540 621 41,000  Level Gander Center
07:54PM 46.0500 -56.3333 68° East 540 621 41,000  Level Gander Center
07:54PM 46.0667 -56.1833 81° East 540 621 41,000  Level Moncton Center
07:55PM 46.1000 -55.9833 76° East 540 621 41,000  Level Moncton Center
07:56PM 46.1500 -55.7667 72° East 540 621 41,000  Level Moncton Center
07:57PM 46.1500 -55.7167 90° East 520 598 41,000  Level Gander Center
07:57PM 46.1667 -55.5667 81° East 520 598 41,000  Level Moncton Center
07:58PM 46.2000 -55.3833 75° East 520 598 41,000  Level Moncton Center
07:59PM 46.2333 -55.1667 77° East 530 610 41,000  Level Moncton Center
08:00PM 46.2667 -54.9667 76° East 530 610 41,000  Level Moncton Center
08:01PM 46.3167 -54.7333 73° East 530 610 41,000  Level Moncton Center
08:02PM 46.3167 -54.6833 90° East 530 610 41,000  Level Gander Center
08:02PM 46.3500 -54.5333 72° East 530 610 41,000  Level Moncton Center
08:03PM 46.3833 -54.3333 76° East 530 610 41,000  Level Moncton Center
08:04PM 46.3833 -54.2667 90° East 530 610 41,000  Level Gander Center
08:05PM 46.4167 -54.0667 76° East 530 610 41,000  Level Gander Center
08:06PM 46.4500 -53.8667 76° East 530 610 41,000  Level Gander Center
08:07PM 46.4833 -53.6667 76° East 530 610 41,000  Level Gander Center
08:08PM 46.5167 -53.4333 78° East 520 598 41,000  Level Gander Center
08:08PM 46.5333 -53.3000 80° East 520 598 41,000  Level Moncton Center
08:09PM 46.5667 -53.1000 76° East 520 598 41,000  Level Moncton Center
08:10PM 46.5667 -53.0167 90° East 530 610 41,000  Level Gander Center
08:11PM 46.6000 -52.8167 76° East 530 610 41,000  Level Gander Center
08:11PM 46.6333 -52.6667 72° East 530 610 41,000  Level Gander Center
08:12PM 46.6500 -52.4333 84° East 530 610 41,000  Level Gander Center
08:13PM 46.6833 -52.2333 76° East 530 610 41,000  Level Gander Center
08:14PM 46.7000 -52.1833 64° Northeast 530 610 41,000  Level Gander Center
08:15PM 46.7167 -51.9833 83° East 520 598 41,000  Level Gander Center
08:16PM 46.7500 -51.7833 76° East 520 598 41,000  Level Gander Center
08:17PM 46.7833 -51.5667 77° East 520 598 41,000  Level Gander Center
08:17PM 46.8000 -51.4167 81° East 520 598 41,000  Level Gander Center
08:18PM 46.8167 -51.2167 83° East 530 610 41,000  Level Gander Center
08:19PM 46.8500 -50.9833 78° East 520 598 41,000  Level Gander Center
08:20PM 46.8667 -50.9333 64° Northeast 520 598 41,000  Level Gander Center
08:20PM 46.8833 -50.7833 81° East 520 598 41,000  Level Gander Center
08:21PM 46.9000 -50.7333 64° Northeast 520 598 41,000  Level Gander Center
08:22PM 46.9000 -50.5333 90° East 520 598 41,000  Level Gander Center
08:23PM 46.9333 -50.3000 78° East 520 598 41,000  Level Gander Center
08:24PM 46.9667 -50.1000 76° East 520 598 41,000  Level Gander Center
08:25PM 47.0167 -49.9000 70° East 520 598 41,000  Level Gander Center
08:26PM 47.0833 -49.7333 60° Northeast 510 587 41,000  Level Gander Center
08:26PM 47.1333 -49.6167 58° Northeast 520 598 41,000  Level Gander Center
08:27PM 47.0000 -50.0000 55° Northeast 511 588 41,000  Level ETMS Enhanced Traffic Management System
08:27PM 47.2167 -49.4500 55° Northeast 520 598 41,000  Level Gander Center
08:28PM 47.3000 -49.2833 54° Northeast 510 587 41,000  Level Gander Center
08:30PM 47.3992 -49.0722 55° Northeast  Level FlightAware Approximate
08:37PM 47.9400 -47.8913 55° Northeast  Level FlightAware Approximate
08:38PM 48.0163 -47.7206 56° Northeast  Level FlightAware Approximate
08:39PM 48.0923 -47.5494 56° Northeast  Level FlightAware Approximate
08:40PM 48.1681 -47.3776 56° Northeast  Level FlightAware Approximate
08:41PM 48.2436 -47.2054 57° Northeast  Level FlightAware Approximate
08:42PM 48.3189 -47.0327 57° Northeast  Level FlightAware Approximate
08:43PM 48.3938 -46.8594 57° Northeast  Level FlightAware Approximate
08:44PM 48.4686 -46.6857 57° Northeast  Level FlightAware Approximate
08:45PM 48.5430 -46.5114 57° Northeast  Level FlightAware Approximate
08:46PM 48.6172 -46.3366 57° Northeast  Level FlightAware Approximate
08:47PM 48.6912 -46.1613 57° Northeast  Level FlightAware Approximate
08:48PM 48.7649 -45.9855 58° Northeast  Level FlightAware Approximate
08:49PM 48.8383 -45.8092 58° Northeast  Level FlightAware Approximate
08:50PM 48.9114 -45.6323 58° Northeast  Level FlightAware Approximate
08:51PM 48.9842 -45.4550 58° Northeast  Level FlightAware Approximate
08:52PM 49.0568 -45.2771 58° Northeast  Level FlightAware Approximate
08:53PM 49.1292 -45.0987 58° Northeast  Level FlightAware Approximate
08:54PM 49.2012 -44.9198 58° Northeast  Level FlightAware Approximate
08:55PM 49.2729 -44.7403 58° Northeast  Level FlightAware Approximate
08:56PM 49.3444 -44.5604 59° Northeast  Level FlightAware Approximate
08:57PM 49.4156 -44.3799 59° Northeast  Level FlightAware Approximate
08:58PM 49.4865 -44.1989 59° Northeast  Level FlightAware Approximate
08:59PM 49.5572 -44.0173 59° Northeast  Level FlightAware Approximate
09:00PM 49.6275 -43.8353 59° Northeast  Level FlightAware Approximate
09:01PM 49.6976 -43.6527 59° Northeast  Level FlightAware Approximate
09:02PM 49.7674 -43.4696 59° Northeast  Level FlightAware Approximate
09:03PM 49.8369 -43.2860 60° Northeast  Level FlightAware Approximate
09:04PM 49.9061 -43.1018 60° Northeast  Level FlightAware Approximate
09:05PM 49.9750 -42.9171 60° Northeast  Level FlightAware Approximate
09:06PM 50.0436 -42.7319 60° Northeast  Level FlightAware Approximate
09:07PM 50.1119 -42.5461 60° Northeast  Level FlightAware Approximate
09:08PM 50.1799 -42.3599 60° Northeast  Level FlightAware Approximate
09:09PM 50.2477 -42.1730 60° Northeast  Level FlightAware Approximate
09:10PM 50.3151 -41.9857 61° Northeast  Level FlightAware Approximate
09:11PM 50.3822 -41.7978 61° Northeast  Level FlightAware Approximate
09:12PM 50.4490 -41.6094 61° Northeast  Level FlightAware Approximate
09:13PM 50.5155 -41.4205 61° Northeast  Level FlightAware Approximate
09:14PM 50.5817 -41.2310 61° Northeast  Level FlightAware Approximate
09:15PM 50.6476 -41.0410 61° Northeast  Level FlightAware Approximate
09:16PM 50.7132 -40.8505 61° Northeast  Level FlightAware Approximate
09:17PM 50.7785 -40.6595 62° Northeast  Level FlightAware Approximate
09:18PM 50.8434 -40.4679 62° Northeast  Level FlightAware Approximate
09:19PM 50.9081 -40.2757 62° Northeast  Level FlightAware Approximate
09:19PM 51.0000 -40.0000 60° Northeast 508 585 41,000  Level ETMS Enhanced Traffic Management System
09:20PM 50.9724 -40.0831 62° Northeast  Level FlightAware Approximate
09:21PM 51.0392 -39.8925 60° Northeast  Level FlightAware Approximate
09:22PM 51.1079 -39.7031 60° Northeast  Level FlightAware Approximate
09:23PM 51.1762 -39.5132 60° Northeast  Level FlightAware Approximate
09:24PM 51.2443 -39.3227 60° Northeast  Level FlightAware Approximate
09:25PM 51.5569 -38.4286 61° Northeast 508 585 41,000  Level FlightAware Transoceanic
09:26PM 51.6250 -38.2295 61° Northeast 508 585 41,000  Level FlightAware Transoceanic
09:27PM 51.6928 -38.0298 61° Northeast 508 585 41,000  Level FlightAware Transoceanic
09:28PM 51.7603 -37.8294 62° Northeast 508 585 41,000  Level FlightAware Transoceanic
09:29PM 51.8274 -37.6286 62° Northeast 508 585 41,000  Level FlightAware Transoceanic
09:30PM 51.8941 -37.4271 62° Northeast 508 585 41,000  Level FlightAware Transoceanic
09:31PM 51.9606 -37.2249 62° Northeast 508 585 41,000  Level FlightAware Transoceanic
09:32PM 52.0266 -37.0223 62° Northeast 508 585 41,000  Level FlightAware Transoceanic
09:33PM 52.0924 -36.8190 62° Northeast 508 585 41,000  Level FlightAware Transoceanic
09:34PM 52.1577 -36.6151 63° Northeast 508 585 41,000  Level FlightAware Transoceanic
09:35PM 52.2227 -36.4106 63° Northeast 508 585 41,000  Level FlightAware Transoceanic
09:36PM 52.2874 -36.2055 63° Northeast 508 585 41,000  Level FlightAware Transoceanic
09:37PM 52.3517 -35.9998 63° Northeast 508 585 41,000  Level FlightAware Transoceanic
09:38PM 52.4156 -35.7935 63° Northeast 508 585 41,000  Level FlightAware Transoceanic
09:39PM 52.4792 -35.5866 63° Northeast 508 585 41,000  Level FlightAware Transoceanic
09:40PM 52.5425 -35.3791 63° Northeast 508 585 41,000  Level FlightAware Transoceanic
09:41PM 52.6053 -35.1711 64° Northeast 508 585 41,000  Level FlightAware Transoceanic
09:42PM 52.6678 -34.9624 64° Northeast 508 585 41,000  Level FlightAware Transoceanic
09:43PM 52.7299 -34.7531 64° Northeast 508 585 41,000  Level FlightAware Transoceanic
09:44PM 52.7917 -34.5433 64° Northeast 508 585 41,000  Level FlightAware Transoceanic
09:45PM 52.8531 -34.3328 64° Northeast 508 585 41,000  Level FlightAware Transoceanic
09:46PM 52.9141 -34.1217 64° Northeast 508 585 41,000  Level FlightAware Transoceanic
09:47PM 52.9748 -33.9101 65° Northeast 508 585 41,000  Level FlightAware Transoceanic
09:48PM 53.0350 -33.6978 65° Northeast 508 585 41,000  Level FlightAware Transoceanic
09:49PM 53.0949 -33.4850 65° Northeast 508 585 41,000  Level FlightAware Transoceanic
09:50PM 53.1544 -33.2716 65° Northeast 508 585 41,000  Level FlightAware Transoceanic
09:51PM 53.2135 -33.0576 65° Northeast 508 585 41,000  Level FlightAware Transoceanic
09:52PM 53.2723 -32.8430 66° East 508 585 41,000  Level FlightAware Transoceanic
09:53PM 53.3306 -32.6278 66° East 508 585 41,000  Level FlightAware Transoceanic
09:54PM 53.3886 -32.4120 66° East 508 585 41,000  Level FlightAware Transoceanic
09:55PM 53.4462 -32.1956 66° East 508 585 41,000  Level FlightAware Transoceanic
09:56PM 53.5033 -31.9787 66° East 508 585 41,000  Level FlightAware Transoceanic
09:57PM 53.5601 -31.7612 66° East 508 585 41,000  Level FlightAware Transoceanic
09:58PM 53.6165 -31.5430 67° East 508 585 41,000  Level FlightAware Transoceanic
09:59PM 53.6725 -31.3243 67° East 508 585 41,000  Level FlightAware Transoceanic
10:00PM 53.7281 -31.1050 67° East 508 585 41,000  Level FlightAware Transoceanic
10:01PM 53.7833 -30.8852 67° East 508 585 41,000  Level FlightAware Transoceanic
10:02PM 53.8381 -30.6647 67° East 508 585 41,000  Level FlightAware Transoceanic
10:03PM 53.8925 -30.4437 67° East 508 585 41,000  Level FlightAware Transoceanic
10:04PM 53.9464 -30.2222 68° East 508 585 41,000  Level FlightAware Transoceanic
10:05PM 53.9986 -30.0060 68° East  Level FlightAware Approximate
10:06PM 54.0504 -29.7894 68° East  Level FlightAware Approximate
10:06PM 54.0000 -30.0000 76° East 504 580 41,000  Level ETMS Enhanced Traffic Management System
10:07PM 54.0293 -29.7849 77° East  Level FlightAware Approximate
10:08PM 54.0600 -29.5568 77° East  Level FlightAware Approximate
10:09PM 54.0902 -29.3284 77° East  Level FlightAware Approximate
10:10PM 54.1200 -29.0996 77° East  Level FlightAware Approximate
10:11PM 54.1493 -28.8705 78° East  Level FlightAware Approximate
10:12PM 54.2234 -28.3701 77° East 504 580 41,000  Level FlightAware Transoceanic
10:13PM 54.2535 -28.1359 78° East 504 580 41,000  Level FlightAware Transoceanic
10:14PM 54.2832 -27.9013 78° East 504 580 41,000  Level FlightAware Transoceanic
10:15PM 54.3124 -27.6663 78° East 504 580 41,000  Level FlightAware Transoceanic
10:16PM 54.3411 -27.4311 78° East 504 580 41,000  Level FlightAware Transoceanic
10:17PM 54.3694 -27.1955 78° East 504 580 41,000  Level FlightAware Transoceanic
10:18PM 54.3972 -26.9596 79° East 504 580 41,000  Level FlightAware Transoceanic
10:19PM 54.4246 -26.7234 79° East 504 580 41,000  Level FlightAware Transoceanic
10:20PM 54.4515 -26.4869 79° East 504 580 41,000  Level FlightAware Transoceanic
10:21PM 54.4780 -26.2500 79° East 504 580 41,000  Level FlightAware Transoceanic
10:22PM 54.5039 -26.0129 79° East 504 580 41,000  Level FlightAware Transoceanic
10:23PM 54.5294 -25.7754 80° East 504 580 41,000  Level FlightAware Transoceanic
10:24PM 54.5545 -25.5377 80° East 504 580 41,000  Level FlightAware Transoceanic
10:25PM 54.5791 -25.2996 80° East 504 580 41,000  Level FlightAware Transoceanic
10:26PM 54.6032 -25.0613 80° East 504 580 41,000  Level FlightAware Transoceanic
10:27PM 54.6268 -24.8227 80° East 504 580 41,000  Level FlightAware Transoceanic
10:28PM 54.6500 -24.5839 81° East 504 580 41,000  Level FlightAware Transoceanic
10:29PM 54.6727 -24.3447 81° East 504 580 41,000  Level FlightAware Transoceanic
10:30PM 54.6950 -24.1053 81° East 504 580 41,000  Level FlightAware Transoceanic
10:31PM 54.7167 -23.8657 81° East 504 580 41,000  Level FlightAware Transoceanic
10:32PM 54.7380 -23.6257 81° East 504 580 41,000  Level FlightAware Transoceanic
10:33PM 54.7588 -23.3856 82° East 504 580 41,000  Level FlightAware Transoceanic
10:34PM 54.7792 -23.1452 82° East 504 580 41,000  Level FlightAware Transoceanic
10:35PM 54.7990 -22.9045 82° East 504 580 41,000  Level FlightAware Transoceanic
10:36PM 54.8184 -22.6636 82° East 504 580 41,000  Level FlightAware Transoceanic
10:37PM 54.8373 -22.4225 82° East 504 580 41,000  Level FlightAware Transoceanic
10:38PM 54.8558 -22.1812 83° East 504 580 41,000  Level FlightAware Transoceanic
10:39PM 54.8737 -21.9396 83° East 504 580 41,000  Level FlightAware Transoceanic
10:40PM 54.8912 -21.6978 83° East 504 580 41,000  Level FlightAware Transoceanic
10:41PM 54.9082 -21.4559 83° East 504 580 41,000  Level FlightAware Transoceanic
10:42PM 54.9247 -21.2137 83° East 504 580 41,000  Level FlightAware Transoceanic
10:43PM 54.9407 -20.9713 84° East 504 580 41,000  Level FlightAware Transoceanic
10:44PM 54.9563 -20.7288 84° East 504 580 41,000  Level FlightAware Transoceanic
10:45PM 54.9713 -20.4860 84° East 504 580 41,000  Level FlightAware Transoceanic
10:46PM 54.9859 -20.2431 84° East 504 580 41,000 -120 Level FlightAware Transoceanic
10:47PM 54.9997 -20.0048 84° East  Level FlightAware Approximate
10:48PM 55.0129 -19.7663 84° East  Level FlightAware Approximate
10:49PM 54.9864 -19.7714 96° East  Level FlightAware Approximate
10:50PM 54.9717 -19.5334 96° East  Level FlightAware Approximate
10:51PM 54.9566 -19.2955 96° East  Level FlightAware Approximate
10:52PM 54.9410 -19.0578 96° East  Level FlightAware Approximate
10:53PM 54.9250 -18.8203 97° East  Level FlightAware Approximate
10:54PM 54.9089 -18.5829 97° East  Level FlightAware Approximate
10:55PM 54.8927 -18.3456 97° East  Level FlightAware Approximate
10:56PM 54.8760 -18.1086 97° East  Level FlightAware Approximate
10:57PM 54.8589 -17.8717 97° East  Level FlightAware Approximate
10:58PM 54.8413 -17.6350 97° East  Level FlightAware Approximate
10:59PM 54.8232 -17.3985 97° East  Level FlightAware Approximate
11:00PM 54.8047 -17.1623 98° East  Level FlightAware Approximate
11:01PM 54.7858 -16.9262 98° East  Level FlightAware Approximate
11:02PM 54.7664 -16.6904 98° East  Level FlightAware Approximate
11:03PM 54.7465 -16.4548 98° East  Level FlightAware Approximate
11:04PM 54.7262 -16.2195 98° East  Level FlightAware Approximate
11:05PM 54.7054 -15.9843 99° East  Level FlightAware Approximate
11:06PM 54.6841 -15.7495 99° East  Level FlightAware Approximate
11:07PM 54.6624 -15.5148 99° East  Level FlightAware Approximate
11:08PM 54.6403 -15.2805 99° East  Level FlightAware Approximate
11:09PM 54.6177 -15.0464 99° East  Level FlightAware Approximate
11:10PM 54.5945 -14.8125 100° East  Level FlightAware Approximate
11:11PM 54.5707 -14.5791 100° East  Level FlightAware Approximate
11:12PM 54.5464 -14.3459 100° East  Level FlightAware Approximate
11:13PM 54.5216 -14.1129 100° East  Level FlightAware Approximate
11:14PM 54.4964 -13.8803 100° East  Level FlightAware Approximate
11:15PM 54.4708 -13.6480 101° East  Level FlightAware Approximate
11:16PM 54.4447 -13.4159 101° East  Level FlightAware Approximate
11:17PM 54.4182 -13.1841 101° East  Level FlightAware Approximate
11:18PM 54.3912 -12.9527 101° East  Level FlightAware Approximate
11:19PM 54.3638 -12.7215 101° East  Level FlightAware Approximate
11:20PM 54.3359 -12.4907 102° East  Level FlightAware Approximate
11:21PM 54.3079 -12.2601 102° East  Level FlightAware Approximate
11:22PM 54.2802 -12.0295 102° East  Level FlightAware Approximate
11:23PM 54.2520 -11.7993 102° East  Level FlightAware Approximate
11:24PM 54.2233 -11.5694 102° East  Level FlightAware Approximate
11:25PM 54.1946 -11.3396 102° East  Level FlightAware Approximate
11:26PM 54.1655 -11.1102 102° East  Level FlightAware Approximate
11:27PM 54.1360 -10.8811 102° East  Level FlightAware Approximate
11:28PM 54.1061 -10.6523 102° East  Level FlightAware Approximate
11:29PM 54.0757 -10.4238 103° East  Level FlightAware Approximate
11:30PM 54.0420 -10.1972 111° Southeast  Level FlightAware Approximate
11:31PM 54.0045 -9.9731 101° East  Level FlightAware Approximate
11:31PM 54.1198 -8.9697 101° East 462 532 36,700  Level FlightAware UK
11:31PM 54.1061 -8.8986 108° East 468 539 36,100 -2,220 Descending FlightAware UK
11:31PM 54.0923 -8.8277 108° East 470 541 35,400 -2,340 Descending FlightAware UK
11:32PM 54.0786 -8.7570 108° East 472 543 34,700 -2,340 Descending FlightAware UK
11:32PM 54.0648 -8.6858 108° East 472 543 34,000 -2,340 Descending FlightAware UK
11:32PM 54.0504 -8.6133 109° East 474 545 33,300 -2,340 Descending FlightAware UK
11:33PM 54.0361 -8.5419 109° East 474 545 32,600 -2,340 Descending FlightAware UK
11:33PM 54.0218 -8.4704 109° East 474 545 31,900 -2,280 Descending FlightAware UK
11:33PM 54.0073 -8.3981 109° East 474 545 31,200 -2,160 Descending FlightAware UK
11:34PM 53.9929 -8.3266 109° East 476 548 30,600 -1,680 Descending FlightAware UK
11:34PM 53.9785 -8.2550 109° East 474 545 30,200 -1,200 Descending FlightAware UK
11:34PM 53.9641 -8.1833 109° East 476 548 29,900 -1,020 Descending FlightAware UK
11:34PM 53.9495 -8.1108 109° East 474 545 29,600 -1,500 Descending FlightAware UK
11:35PM 53.9349 -8.0394 109° East 472 543 29,000 -2,220 Descending FlightAware UK
11:35PM 53.9203 -7.9686 109° East 466 536 28,300 -2,520 Descending FlightAware UK
11:35PM 53.9059 -7.8995 109° East 458 527 27,500 -2,700 Descending FlightAware UK
11:36PM 53.8926 -7.8324 109° East 454 522 26,700 -2,880 Descending FlightAware UK
11:36PM 53.8810 -7.7648 106° East 450 518 25,800 -3,180 Descending FlightAware UK
11:36PM 53.8714 -7.6966 104° East 444 511 24,800 -3,180 Descending FlightAware UK
11:37PM 53.8631 -7.6294 102° East 440 506 23,900 -3,180 Descending FlightAware UK
11:37PM 53.8548 -7.5632 102° East 432 497 22,900 -3,000 Descending FlightAware UK
11:37PM 53.8467 -7.4987 102° East 424 488 22,100 -2,520 Descending FlightAware UK
11:37PM 53.8383 -7.4345 102° East 420 483 21,400 -2,340 Descending FlightAware UK
11:38PM 53.8300 -7.3699 102° East 418 481 20,700 -2,340 Descending FlightAware UK
11:38PM 53.8218 -7.3059 102° East 412 474 20,000 -2,340 Descending FlightAware UK
11:38PM 53.8138 -7.2436 102° East 408 470 19,300 -2,520 Descending FlightAware UK
11:39PM 53.8056 -7.1810 102° East 406 467 18,500 -2,520 Descending FlightAware UK
11:39PM 53.7975 -7.1197 103° East 400 460 17,800 -2,340 Descending FlightAware UK
11:39PM 53.7896 -7.0587 102° East 396 456 17,100 -1,860 Descending FlightAware UK
11:40PM 53.7817 -6.9990 103° East 394 453 16,700 -1,500 Descending FlightAware UK
11:40PM 53.7737 -6.9387 103° East 390 449 16,200 -1,680 Descending FlightAware UK
11:40PM 53.7661 -6.8806 102° East 388 447 15,700 -1,680 Descending FlightAware UK
11:40PM 53.7583 -6.8224 103° East 384 442 15,200 -1,680 Descending FlightAware UK
11:41PM 53.7501 -6.7648 104° East 382 440 14,700 -1,860 Descending FlightAware UK
11:41PM 53.7368 -6.7107 112° Southeast 378 435 14,100 -2,220 Descending FlightAware UK
11:41PM 53.7212 -6.6589 117° Southeast 378 435 13,400 -2,340 Descending FlightAware UK
11:42PM 53.7041 -6.6092 120° Southeast 372 428 12,700 -2,340 Descending FlightAware UK
11:42PM 53.6876 -6.5607 120° Southeast 366 421 12,000 -2,220 Descending FlightAware UK
11:42PM 53.6715 -6.5132 120° Southeast 358 412 11,400 -2,040 Descending FlightAware UK
11:43PM 53.6560 -6.4680 120° Southeast 342 394 10,800 -2,040 Descending FlightAware UK
11:43PM 53.6409 -6.4243 120° Southeast 328 377 10,200 -2,040 Descending FlightAware UK
11:43PM 53.6263 -6.3827 121° Southeast 318 366 9,600 -2,040 Descending FlightAware UK
11:43PM 53.6120 -6.3423 121° Southeast 304 350 9,000 -1,800 Descending FlightAware UK
11:44PM 53.5978 -6.3023 121° Southeast 294 338 8,500 -1,860 Descending FlightAware UK
11:44PM 53.5847 -6.2658 121° Southeast 286 329 7,900 -2,100 Descending FlightAware UK
11:44PM 53.5716 -6.2295 121° Southeast 280 322 7,300 -1,860 Descending FlightAware UK
11:45PM 53.5588 -6.1943 121° Southeast 274 315 6,800 -1,800 Descending FlightAware UK
11:45PM 53.5462 -6.1600 122° Southeast 264 304 6,200 -2,040 Descending FlightAware UK
11:45PM 53.5340 -6.1267 122° Southeast 260 299 5,600 -2,100 Descending FlightAware UK
11:46PM 53.5219 -6.0947 122° Southeast 252 290 5,000 -1,980 Descending FlightAware UK
11:46PM 53.5098 -6.0625 122° Southeast 242 278 4,400 -1,860 Descending FlightAware UK
11:46PM 53.4983 -6.0319 122° Southeast 238 274 3,900 -1,920 Descending FlightAware UK
11:46PM 53.4870 -6.0028 123° Southeast 234 269 3,300 -1,860 Descending FlightAware UK
11:47PM 53.4753 -5.9729 123° Southeast 240 276 2,800 -1,500 Descending FlightAware UK
11:47PM 53.4641 -5.9433 122° Southeast 224 258 2,400 -1,200 Descending FlightAware UK
11:47PM 53.4529 -5.9138 123° Southeast 224 258 2,100 -1,020 Descending FlightAware UK
11:49PM 53.4301 -6.1724 262° West  Level Estimated
11:56PM 53.4213 -6.2701 261° West  Level Estimated
11:57PM 53.4213 -6.2701 315° West  Level Estimated
11:58PM 53.4213 -6.2701 315° West  Level Estimated
11:59PM 53.4213 -6.2701 315° West  Level Estimated
12:00AM 53.4213 -6.2701 315° West  Level Estimated
12:01AM 53.4213 -6.2701 315° West  Level Estimated
12:02AM 53.4213 -6.2701 315° West  Level Estimated
12:03AM 53.4213 -6.2701 315° West  Level Estimated
12:04AM 53.4213 -6.2701 315° West  Level Estimated
12:05AM 53.4213 -6.2701 315° West  Level Estimated
12:06AM 53.4213 -6.2701 315° West  Level Estimated
12:07AM 53.4213 -6.2701 315° West  Level Estimated
12:08AM 53.4213 -6.2701 315° West  Level Estimated
12:09AM 53.4213 -6.2701 315° West  Level Estimated
12:10AM 53.4213 -6.2701 315° West  Level Estimated